sensor_id;sensor_type;location;lat;lon;timestamp;P1;durP1;ratioP1;P2;durP2;ratioP2
2458;SDS011;1241;50.920;6.936;2022-12-10T00:01:29;42.10;;;29.45;;
2458;SDS011;1241;50.920;6.936;2022-12-10T00:03:55;49.58;;;28.92;;
2458;SDS011;1241;50.920;6.936;2022-12-10T00:06:22;48.17;;;30.15;;
2458;SDS011;1241;50.920;6.936;2022-12-10T00:08:50;50.08;;;29.38;;
2458;SDS011;1241;50.920;6.936;2022-12-10T00:11:17;47.50;;;30.35;;
2458;SDS011;1241;50.920;6.936;2022-12-10T00:13:44;50.30;;;31.25;;
2458;SDS011;1241;50.920;6.936;2022-12-10T00:16:12;48.83;;;28.55;;
2458;SDS011;1241;50.920;6.936;2022-12-10T00:18:39;51.97;;;31.55;;
2458;SDS011;1241;50.920;6.936;2022-12-10T00:21:06;47.45;;;29.67;;
2458;SDS011;1241;50.920;6.936;2022-12-10T00:23:34;58.53;;;31.75;;
2458;SDS011;1241;50.920;6.936;2022-12-10T00:26:10;47.85;;;32.00;;
2458;SDS011;1241;50.920;6.936;2022-12-10T00:28:39;54.40;;;31.92;;
2458;SDS011;1241;50.920;6.936;2022-12-10T00:31:07;42.45;;;29.33;;
2458;SDS011;1241;50.920;6.936;2022-12-10T00:33:35;47.67;;;28.65;;
2458;SDS011;1241;50.920;6.936;2022-12-10T00:36:07;44.60;;;28.92;;
2458;SDS011;1241;50.920;6.936;2022-12-10T00:38:36;45.20;;;28.58;;
2458;SDS011;1241;50.920;6.936;2022-12-10T00:41:02;49.13;;;31.65;;
2458;SDS011;1241;50.920;6.936;2022-12-10T00:43:28;53.88;;;33.85;;
2458;SDS011;1241;50.920;6.936;2022-12-10T00:45:54;48.57;;;29.67;;
2458;SDS011;1241;50.920;6.936;2022-12-10T00:48:20;52.50;;;32.60;;
2458;SDS011;1241;50.920;6.936;2022-12-10T00:50:57;51.47;;;31.25;;
2458;SDS011;1241;50.920;6.936;2022-12-10T00:53:34;53.05;;;32.47;;
2458;SDS011;1241;50.920;6.936;2022-12-10T00:56:02;45.90;;;30.80;;
2458;SDS011;1241;50.920;6.936;2022-12-10T00:58:29;53.72;;;31.20;;
2458;SDS011;1241;50.920;6.936;2022-12-10T01:03:44;48.55;;;30.40;;
2458;SDS011;1241;50.920;6.936;2022-12-10T01:06:13;45.22;;;30.30;;
2458;SDS011;1241;50.920;6.936;2022-12-10T01:08:45;52.92;;;30.58;;
2458;SDS011;1241;50.920;6.936;2022-12-10T01:11:12;43.20;;;29.00;;
2458;SDS011;1241;50.920;6.936;2022-12-10T01:13:40;53.42;;;32.50;;
2458;SDS011;1241;50.920;6.936;2022-12-10T01:16:06;49.30;;;31.85;;
2458;SDS011;1241;50.920;6.936;2022-12-10T01:18:34;48.30;;;32.53;;
2458;SDS011;1241;50.920;6.936;2022-12-10T01:21:01;55.97;;;33.85;;
2458;SDS011;1241;50.920;6.936;2022-12-10T01:23:31;49.35;;;33.78;;
2458;SDS011;1241;50.920;6.936;2022-12-10T01:25:59;50.00;;;31.65;;
2458;SDS011;1241;50.920;6.936;2022-12-10T01:28:30;63.40;;;32.92;;
2458;SDS011;1241;50.920;6.936;2022-12-10T01:30:59;47.67;;;31.25;;
2458;SDS011;1241;50.920;6.936;2022-12-10T01:33:30;52.55;;;30.40;;
2458;SDS011;1241;50.920;6.936;2022-12-10T01:35:57;48.72;;;30.05;;
2458;SDS011;1241;50.920;6.936;2022-12-10T01:38:34;57.30;;;29.80;;
2458;SDS011;1241;50.920;6.936;2022-12-10T01:41:03;49.50;;;31.35;;
2458;SDS011;1241;50.920;6.936;2022-12-10T01:43:33;53.17;;;29.97;;
2458;SDS011;1241;50.920;6.936;2022-12-10T01:46:21;49.63;;;29.73;;
2458;SDS011;1241;50.920;6.936;2022-12-10T01:48:49;53.03;;;29.63;;
2458;SDS011;1241;50.920;6.936;2022-12-10T01:51:16;51.03;;;29.33;;
2458;SDS011;1241;50.920;6.936;2022-12-10T01:53:42;46.22;;;27.88;;
2458;SDS011;1241;50.920;6.936;2022-12-10T01:56:10;54.83;;;32.08;;
2458;SDS011;1241;50.920;6.936;2022-12-10T01:58:36;51.78;;;31.42;;
2458;SDS011;1241;50.920;6.936;2022-12-10T02:01:10;49.00;;;31.88;;
2458;SDS011;1241;50.920;6.936;2022-12-10T02:06:44;40.85;;;27.88;;
2458;SDS011;1241;50.920;6.936;2022-12-10T02:12:18;40.25;;;26.65;;
2458;SDS011;1241;50.920;6.936;2022-12-10T02:15:23;48.53;;;29.73;;
2458;SDS011;1241;50.920;6.936;2022-12-10T02:17:46;45.03;;;28.95;;
2458;SDS011;1241;50.920;6.936;2022-12-10T02:20:21;46.08;;;28.48;;
2458;SDS011;1241;50.920;6.936;2022-12-10T02:25:22;44.40;;;28.48;;
2458;SDS011;1241;50.920;6.936;2022-12-10T02:30:41;40.65;;;26.23;;
2458;SDS011;1241;50.920;6.936;2022-12-10T02:33:08;45.72;;;28.20;;
2458;SDS011;1241;50.920;6.936;2022-12-10T02:35:35;44.20;;;28.25;;
2458;SDS011;1241;50.920;6.936;2022-12-10T02:38:14;48.35;;;29.17;;
2458;SDS011;1241;50.920;6.936;2022-12-10T02:40:46;40.28;;;28.70;;
2458;SDS011;1241;50.920;6.936;2022-12-10T02:43:16;52.55;;;30.98;;
2458;SDS011;1241;50.920;6.936;2022-12-10T02:45:45;44.53;;;29.15;;
2458;SDS011;1241;50.920;6.936;2022-12-10T02:48:12;40.40;;;29.13;;
2458;SDS011;1241;50.920;6.936;2022-12-10T02:50:41;42.42;;;27.52;;
2458;SDS011;1241;50.920;6.936;2022-12-10T02:53:07;46.80;;;30.77;;
2458;SDS011;1241;50.920;6.936;2022-12-10T02:55:38;52.00;;;29.50;;
2458;SDS011;1241;50.920;6.936;2022-12-10T02:58:20;45.65;;;32.10;;
2458;SDS011;1241;50.920;6.936;2022-12-10T03:00:58;43.85;;;27.42;;
2458;SDS011;1241;50.920;6.936;2022-12-10T03:03:34;51.45;;;30.48;;
2458;SDS011;1241;50.920;6.936;2022-12-10T03:06:32;42.70;;;30.00;;
2458;SDS011;1241;50.920;6.936;2022-12-10T03:09:05;44.33;;;29.60;;
2458;SDS011;1241;50.920;6.936;2022-12-10T03:11:36;47.40;;;30.85;;
2458;SDS011;1241;50.920;6.936;2022-12-10T03:14:11;44.63;;;28.45;;
2458;SDS011;1241;50.920;6.936;2022-12-10T03:16:45;44.97;;;30.27;;
2458;SDS011;1241;50.920;6.936;2022-12-10T03:19:20;45.30;;;29.77;;
2458;SDS011;1241;50.920;6.936;2022-12-10T03:21:49;35.90;;;26.52;;
2458;SDS011;1241;50.920;6.936;2022-12-10T03:24:17;46.17;;;28.83;;
2458;SDS011;1241;50.920;6.936;2022-12-10T03:26:45;42.97;;;28.30;;
2458;SDS011;1241;50.920;6.936;2022-12-10T03:29:21;44.28;;;28.75;;
2458;SDS011;1241;50.920;6.936;2022-12-10T03:31:50;48.40;;;28.92;;
2458;SDS011;1241;50.920;6.936;2022-12-10T03:34:17;42.63;;;29.15;;
2458;SDS011;1241;50.920;6.936;2022-12-10T03:36:43;40.37;;;27.57;;
2458;SDS011;1241;50.920;6.936;2022-12-10T03:39:09;43.80;;;28.52;;
2458;SDS011;1241;50.920;6.936;2022-12-10T03:41:36;46.20;;;29.35;;
2458;SDS011;1241;50.920;6.936;2022-12-10T03:44:02;44.77;;;28.80;;
2458;SDS011;1241;50.920;6.936;2022-12-10T03:46:29;41.20;;;28.20;;
2458;SDS011;1241;50.920;6.936;2022-12-10T03:48:57;38.78;;;25.50;;
2458;SDS011;1241;50.920;6.936;2022-12-10T03:51:24;38.25;;;26.10;;
2458;SDS011;1241;50.920;6.936;2022-12-10T03:53:50;39.40;;;27.07;;
2458;SDS011;1241;50.920;6.936;2022-12-10T03:56:17;48.80;;;29.27;;
2458;SDS011;1241;50.920;6.936;2022-12-10T03:58:43;40.40;;;27.15;;
2458;SDS011;1241;50.920;6.936;2022-12-10T04:01:09;42.30;;;25.57;;
2458;SDS011;1241;50.920;6.936;2022-12-10T04:03:35;36.90;;;24.67;;
2458;SDS011;1241;50.920;6.936;2022-12-10T04:06:03;33.47;;;25.90;;
2458;SDS011;1241;50.920;6.936;2022-12-10T04:08:29;43.13;;;27.08;;
2458;SDS011;1241;50.920;6.936;2022-12-10T04:11:01;39.72;;;27.17;;
2458;SDS011;1241;50.920;6.936;2022-12-10T04:13:30;37.50;;;26.27;;
2458;SDS011;1241;50.920;6.936;2022-12-10T04:16:15;39.90;;;25.30;;
2458;SDS011;1241;50.920;6.936;2022-12-10T04:19:15;37.15;;;24.20;;
2458;SDS011;1241;50.920;6.936;2022-12-10T04:21:41;31.27;;;23.20;;
2458;SDS011;1241;50.920;6.936;2022-12-10T04:24:27;34.72;;;24.63;;
2458;SDS011;1241;50.920;6.936;2022-12-10T04:29:42;38.90;;;25.23;;
2458;SDS011;1241;50.920;6.936;2022-12-10T04:32:08;33.20;;;23.87;;
2458;SDS011;1241;50.920;6.936;2022-12-10T04:34:33;35.70;;;24.60;;
2458;SDS011;1241;50.920;6.936;2022-12-10T04:36:59;35.23;;;24.40;;
2458;SDS011;1241;50.920;6.936;2022-12-10T04:39:25;35.08;;;24.20;;
2458;SDS011;1241;50.920;6.936;2022-12-10T04:41:51;33.53;;;22.77;;
2458;SDS011;1241;50.920;6.936;2022-12-10T04:44:17;40.70;;;26.37;;
2458;SDS011;1241;50.920;6.936;2022-12-10T04:46:44;33.85;;;24.20;;
2458;SDS011;1241;50.920;6.936;2022-12-10T04:49:10;33.77;;;23.37;;
2458;SDS011;1241;50.920;6.936;2022-12-10T04:51:36;36.05;;;25.65;;
2458;SDS011;1241;50.920;6.936;2022-12-10T04:54:02;40.23;;;26.00;;
2458;SDS011;1241;50.920;6.936;2022-12-10T04:56:28;35.05;;;24.25;;
2458;SDS011;1241;50.920;6.936;2022-12-10T04:58:58;34.60;;;24.10;;
2458;SDS011;1241;50.920;6.936;2022-12-10T05:01:24;31.70;;;23.60;;
2458;SDS011;1241;50.920;6.936;2022-12-10T05:03:51;35.92;;;25.33;;
2458;SDS011;1241;50.920;6.936;2022-12-10T05:06:17;35.43;;;24.10;;
2458;SDS011;1241;50.920;6.936;2022-12-10T05:08:44;38.95;;;25.25;;
2458;SDS011;1241;50.920;6.936;2022-12-10T05:11:12;37.00;;;24.50;;
2458;SDS011;1241;50.920;6.936;2022-12-10T05:13:40;35.40;;;24.92;;
2458;SDS011;1241;50.920;6.936;2022-12-10T05:16:07;40.92;;;25.20;;
2458;SDS011;1241;50.920;6.936;2022-12-10T05:18:36;38.90;;;26.00;;
2458;SDS011;1241;50.920;6.936;2022-12-10T05:21:03;45.85;;;26.98;;
2458;SDS011;1241;50.920;6.936;2022-12-10T05:23:31;38.55;;;25.27;;
2458;SDS011;1241;50.920;6.936;2022-12-10T05:25:58;38.60;;;26.08;;
2458;SDS011;1241;50.920;6.936;2022-12-10T05:28:24;33.35;;;23.20;;
2458;SDS011;1241;50.920;6.936;2022-12-10T05:30:51;36.17;;;22.23;;
2458;SDS011;1241;50.920;6.936;2022-12-10T05:33:17;33.50;;;22.63;;
2458;SDS011;1241;50.920;6.936;2022-12-10T05:35:43;36.72;;;25.00;;
2458;SDS011;1241;50.920;6.936;2022-12-10T05:38:15;35.20;;;23.75;;
2458;SDS011;1241;50.920;6.936;2022-12-10T05:40:41;41.40;;;25.07;;
2458;SDS011;1241;50.920;6.936;2022-12-10T05:43:07;36.73;;;23.73;;
2458;SDS011;1241;50.920;6.936;2022-12-10T05:45:32;32.60;;;22.73;;
2458;SDS011;1241;50.920;6.936;2022-12-10T05:47:58;37.10;;;24.60;;
2458;SDS011;1241;50.920;6.936;2022-12-10T05:50:24;42.30;;;26.60;;
2458;SDS011;1241;50.920;6.936;2022-12-10T05:52:51;36.75;;;23.90;;
2458;SDS011;1241;50.920;6.936;2022-12-10T05:55:17;31.87;;;24.13;;
2458;SDS011;1241;50.920;6.936;2022-12-10T05:57:42;37.37;;;24.90;;
2458;SDS011;1241;50.920;6.936;2022-12-10T06:00:08;34.60;;;23.97;;
2458;SDS011;1241;50.920;6.936;2022-12-10T06:02:37;35.20;;;24.52;;
2458;SDS011;1241;50.920;6.936;2022-12-10T06:05:03;37.67;;;26.17;;
2458;SDS011;1241;50.920;6.936;2022-12-10T06:07:29;41.53;;;27.10;;
2458;SDS011;1241;50.920;6.936;2022-12-10T06:09:55;38.00;;;25.02;;
2458;SDS011;1241;50.920;6.936;2022-12-10T06:12:24;35.35;;;23.38;;
2458;SDS011;1241;50.920;6.936;2022-12-10T06:14:50;40.35;;;23.90;;
2458;SDS011;1241;50.920;6.936;2022-12-10T06:17:16;38.47;;;25.87;;
2458;SDS011;1241;50.920;6.936;2022-12-10T06:19:42;39.87;;;23.70;;
2458;SDS011;1241;50.920;6.936;2022-12-10T06:22:07;39.40;;;25.10;;
2458;SDS011;1241;50.920;6.936;2022-12-10T06:24:33;37.67;;;24.63;;
2458;SDS011;1241;50.920;6.936;2022-12-10T06:26:59;30.60;;;23.20;;
2458;SDS011;1241;50.920;6.936;2022-12-10T06:29:24;34.40;;;22.07;;
2458;SDS011;1241;50.920;6.936;2022-12-10T06:31:50;39.07;;;23.90;;
2458;SDS011;1241;50.920;6.936;2022-12-10T06:34:16;34.67;;;21.77;;
2458;SDS011;1241;50.920;6.936;2022-12-10T06:36:42;31.43;;;21.23;;
2458;SDS011;1241;50.920;6.936;2022-12-10T06:39:07;37.30;;;25.10;;
2458;SDS011;1241;50.920;6.936;2022-12-10T06:41:33;37.03;;;24.80;;
2458;SDS011;1241;50.920;6.936;2022-12-10T06:43:59;38.37;;;24.73;;
2458;SDS011;1241;50.920;6.936;2022-12-10T06:46:25;42.77;;;22.90;;
2458;SDS011;1241;50.920;6.936;2022-12-10T06:48:54;37.67;;;24.58;;
2458;SDS011;1241;50.920;6.936;2022-12-10T06:51:20;31.90;;;23.10;;
2458;SDS011;1241;50.920;6.936;2022-12-10T06:53:46;34.80;;;24.33;;
2458;SDS011;1241;50.920;6.936;2022-12-10T06:56:16;32.85;;;22.83;;
2458;SDS011;1241;50.920;6.936;2022-12-10T06:58:43;38.75;;;23.08;;
2458;SDS011;1241;50.920;6.936;2022-12-10T07:01:20;35.70;;;22.98;;
2458;SDS011;1241;50.920;6.936;2022-12-10T07:03:48;31.30;;;22.02;;
2458;SDS011;1241;50.920;6.936;2022-12-10T07:06:14;34.33;;;21.80;;
2458;SDS011;1241;50.920;6.936;2022-12-10T07:08:40;34.37;;;23.80;;
2458;SDS011;1241;50.920;6.936;2022-12-10T07:11:07;40.13;;;24.63;;
2458;SDS011;1241;50.920;6.936;2022-12-10T07:13:35;44.42;;;25.85;;
2458;SDS011;1241;50.920;6.936;2022-12-10T07:16:01;42.13;;;24.47;;
2458;SDS011;1241;50.920;6.936;2022-12-10T07:18:27;42.95;;;26.23;;
2458;SDS011;1241;50.920;6.936;2022-12-10T07:20:53;37.50;;;24.80;;
2458;SDS011;1241;50.920;6.936;2022-12-10T07:23:18;46.60;;;25.43;;
2458;SDS011;1241;50.920;6.936;2022-12-10T07:25:44;34.50;;;24.27;;
2458;SDS011;1241;50.920;6.936;2022-12-10T07:28:10;36.33;;;23.23;;
2458;SDS011;1241;50.920;6.936;2022-12-10T07:30:36;33.00;;;23.77;;
2458;SDS011;1241;50.920;6.936;2022-12-10T07:33:02;38.70;;;25.83;;
2458;SDS011;1241;50.920;6.936;2022-12-10T07:35:28;41.80;;;26.20;;
2458;SDS011;1241;50.920;6.936;2022-12-10T07:37:54;34.13;;;25.00;;
2458;SDS011;1241;50.920;6.936;2022-12-10T07:40:19;36.87;;;22.13;;
2458;SDS011;1241;50.920;6.936;2022-12-10T07:42:45;36.50;;;23.27;;
2458;SDS011;1241;50.920;6.936;2022-12-10T07:45:11;37.80;;;23.70;;
2458;SDS011;1241;50.920;6.936;2022-12-10T07:47:37;37.60;;;23.60;;
2458;SDS011;1241;50.920;6.936;2022-12-10T07:50:04;32.95;;;22.08;;
2458;SDS011;1241;50.920;6.936;2022-12-10T07:52:30;40.25;;;24.77;;
2458;SDS011;1241;50.920;6.936;2022-12-10T07:54:56;40.23;;;25.97;;
2458;SDS011;1241;50.920;6.936;2022-12-10T07:57:22;32.87;;;23.90;;
2458;SDS011;1241;50.920;6.936;2022-12-10T07:59:48;38.13;;;25.20;;
2458;SDS011;1241;50.920;6.936;2022-12-10T08:02:13;40.17;;;25.37;;
2458;SDS011;1241;50.920;6.936;2022-12-10T08:04:39;35.37;;;24.80;;
2458;SDS011;1241;50.920;6.936;2022-12-10T08:07:05;33.07;;;22.93;;
2458;SDS011;1241;50.920;6.936;2022-12-10T08:09:32;35.05;;;25.27;;
2458;SDS011;1241;50.920;6.936;2022-12-10T08:11:58;39.57;;;23.57;;
2458;SDS011;1241;50.920;6.936;2022-12-10T08:14:23;39.33;;;25.80;;
2458;SDS011;1241;50.920;6.936;2022-12-10T08:16:49;39.30;;;24.63;;
2458;SDS011;1241;50.920;6.936;2022-12-10T08:19:15;37.07;;;24.60;;
2458;SDS011;1241;50.920;6.936;2022-12-10T08:21:40;37.30;;;23.60;;
2458;SDS011;1241;50.920;6.936;2022-12-10T08:24:07;42.20;;;25.23;;
2458;SDS011;1241;50.920;6.936;2022-12-10T08:26:33;42.67;;;25.00;;
2458;SDS011;1241;50.920;6.936;2022-12-10T08:29:00;42.03;;;27.40;;
2458;SDS011;1241;50.920;6.936;2022-12-10T08:31:26;36.13;;;23.23;;
2458;SDS011;1241;50.920;6.936;2022-12-10T08:33:52;34.95;;;24.83;;
2458;SDS011;1241;50.920;6.936;2022-12-10T08:36:19;44.17;;;27.60;;
2458;SDS011;1241;50.920;6.936;2022-12-10T08:38:45;47.20;;;28.95;;
2458;SDS011;1241;50.920;6.936;2022-12-10T08:41:12;50.87;;;28.23;;
2458;SDS011;1241;50.920;6.936;2022-12-10T08:43:42;41.95;;;26.67;;
2458;SDS011;1241;50.920;6.936;2022-12-10T08:46:09;45.97;;;28.25;;
2458;SDS011;1241;50.920;6.936;2022-12-10T08:48:37;45.80;;;28.00;;
2458;SDS011;1241;50.920;6.936;2022-12-10T08:51:04;42.58;;;27.98;;
2458;SDS011;1241;50.920;6.936;2022-12-10T08:53:31;45.90;;;28.73;;
2458;SDS011;1241;50.920;6.936;2022-12-10T08:55:57;49.53;;;29.52;;
2458;SDS011;1241;50.920;6.936;2022-12-10T08:58:23;42.70;;;28.07;;
2458;SDS011;1241;50.920;6.936;2022-12-10T09:00:48;51.47;;;30.50;;
2458;SDS011;1241;50.920;6.936;2022-12-10T09:03:15;58.80;;;34.10;;
2458;SDS011;1241;50.920;6.936;2022-12-10T09:05:41;61.53;;;36.15;;
2458;SDS011;1241;50.920;6.936;2022-12-10T09:08:07;61.00;;;35.00;;
2458;SDS011;1241;50.920;6.936;2022-12-10T09:10:35;59.70;;;33.77;;
2458;SDS011;1241;50.920;6.936;2022-12-10T09:13:02;61.10;;;36.10;;
2458;SDS011;1241;50.920;6.936;2022-12-10T09:15:28;57.70;;;34.35;;
2458;SDS011;1241;50.920;6.936;2022-12-10T09:17:54;63.80;;;34.93;;
2458;SDS011;1241;50.920;6.936;2022-12-10T09:20:19;57.27;;;35.37;;
2458;SDS011;1241;50.920;6.936;2022-12-10T09:22:45;61.67;;;36.30;;
2458;SDS011;1241;50.920;6.936;2022-12-10T09:25:11;58.97;;;36.37;;
2458;SDS011;1241;50.920;6.936;2022-12-10T09:27:41;67.85;;;38.15;;
2458;SDS011;1241;50.920;6.936;2022-12-10T09:30:07;64.93;;;34.85;;
2458;SDS011;1241;50.920;6.936;2022-12-10T09:32:33;61.30;;;34.45;;
2458;SDS011;1241;50.920;6.936;2022-12-10T09:34:59;56.10;;;36.03;;
2458;SDS011;1241;50.920;6.936;2022-12-10T09:37:25;66.30;;;37.70;;
2458;SDS011;1241;50.920;6.936;2022-12-10T09:39:50;69.82;;;37.72;;
2458;SDS011;1241;50.920;6.936;2022-12-10T09:45:01;69.40;;;38.67;;
2458;SDS011;1241;50.920;6.936;2022-12-10T09:47:49;63.80;;;37.08;;
2458;SDS011;1241;50.920;6.936;2022-12-10T09:50:34;62.45;;;33.75;;
2458;SDS011;1241;50.920;6.936;2022-12-10T09:53:11;67.50;;;38.80;;
2458;SDS011;1241;50.920;6.936;2022-12-10T09:55:42;66.25;;;37.20;;
2458;SDS011;1241;50.920;6.936;2022-12-10T09:58:16;66.82;;;37.00;;
2458;SDS011;1241;50.920;6.936;2022-12-10T10:00:46;58.83;;;35.42;;
2458;SDS011;1241;50.920;6.936;2022-12-10T10:03:15;66.20;;;36.15;;
2458;SDS011;1241;50.920;6.936;2022-12-10T10:08:12;56.93;;;33.70;;
2458;SDS011;1241;50.920;6.936;2022-12-10T10:10:39;63.50;;;35.05;;
2458;SDS011;1241;50.920;6.936;2022-12-10T10:15:33;56.97;;;34.00;;
2458;SDS011;1241;50.920;6.936;2022-12-10T10:20:45;62.67;;;35.72;;
2458;SDS011;1241;50.920;6.936;2022-12-10T10:23:12;62.53;;;36.00;;
2458;SDS011;1241;50.920;6.936;2022-12-10T10:25:40;66.80;;;36.72;;
2458;SDS011;1241;50.920;6.936;2022-12-10T10:28:07;62.35;;;35.33;;
2458;SDS011;1241;50.920;6.936;2022-12-10T10:30:37;66.80;;;36.10;;
2458;SDS011;1241;50.920;6.936;2022-12-10T10:33:08;56.25;;;35.42;;
2458;SDS011;1241;50.920;6.936;2022-12-10T10:35:41;63.92;;;37.58;;
2458;SDS011;1241;50.920;6.936;2022-12-10T10:38:23;67.18;;;37.67;;
2458;SDS011;1241;50.920;6.936;2022-12-10T10:40:57;61.55;;;37.67;;
2458;SDS011;1241;50.920;6.936;2022-12-10T10:43:31;58.15;;;35.08;;
2458;SDS011;1241;50.920;6.936;2022-12-10T10:46:12;66.20;;;36.22;;
2458;SDS011;1241;50.920;6.936;2022-12-10T10:48:43;62.65;;;32.97;;
2458;SDS011;1241;50.920;6.936;2022-12-10T10:56:26;53.05;;;34.47;;
2458;SDS011;1241;50.920;6.936;2022-12-10T11:01:54;68.68;;;39.00;;
2458;SDS011;1241;50.920;6.936;2022-12-10T11:04:27;61.55;;;36.63;;
2458;SDS011;1241;50.920;6.936;2022-12-10T11:06:56;61.50;;;34.28;;
2458;SDS011;1241;50.920;6.936;2022-12-10T11:09:30;59.63;;;36.83;;
2458;SDS011;1241;50.920;6.936;2022-12-10T11:12:20;72.82;;;40.15;;
2458;SDS011;1241;50.920;6.936;2022-12-10T11:14:52;83.60;;;39.30;;
2458;SDS011;1241;50.920;6.936;2022-12-10T11:17:19;78.17;;;38.93;;
2458;SDS011;1241;50.920;6.936;2022-12-10T11:22:26;67.93;;;41.15;;
2458;SDS011;1241;50.920;6.936;2022-12-10T11:24:57;62.83;;;36.58;;
2458;SDS011;1241;50.920;6.936;2022-12-10T11:27:36;68.85;;;37.80;;
2458;SDS011;1241;50.920;6.936;2022-12-10T11:32:57;67.88;;;37.05;;
2458;SDS011;1241;50.920;6.936;2022-12-10T12:00:47;62.42;;;33.25;;
2458;SDS011;1241;50.920;6.936;2022-12-10T12:14:43;57.28;;;32.88;;
2458;SDS011;1241;50.920;6.936;2022-12-10T12:17:21;57.78;;;29.85;;
2458;SDS011;1241;50.920;6.936;2022-12-10T12:19:50;53.97;;;30.60;;
2458;SDS011;1241;50.920;6.936;2022-12-10T12:22:23;49.92;;;30.08;;
2458;SDS011;1241;50.920;6.936;2022-12-10T12:24:56;56.53;;;30.40;;
2458;SDS011;1241;50.920;6.936;2022-12-10T12:30:10;50.72;;;28.77;;
2458;SDS011;1241;50.920;6.936;2022-12-10T12:38:12;48.50;;;27.88;;
2458;SDS011;1241;50.920;6.936;2022-12-10T12:40:50;44.90;;;28.23;;
2458;SDS011;1241;50.920;6.936;2022-12-10T12:43:19;48.58;;;27.83;;
2458;SDS011;1241;50.920;6.936;2022-12-10T12:45:48;49.47;;;30.70;;
2458;SDS011;1241;50.920;6.936;2022-12-10T12:48:34;56.78;;;30.45;;
2458;SDS011;1241;50.920;6.936;2022-12-10T12:51:12;50.92;;;28.33;;
2458;SDS011;1241;50.920;6.936;2022-12-10T12:53:39;51.97;;;30.33;;
2458;SDS011;1241;50.920;6.936;2022-12-10T12:56:07;55.47;;;28.30;;
2458;SDS011;1241;50.920;6.936;2022-12-10T12:58:48;46.10;;;28.52;;
2458;SDS011;1241;50.920;6.936;2022-12-10T13:01:40;46.92;;;27.83;;
2458;SDS011;1241;50.920;6.936;2022-12-10T13:04:25;48.38;;;29.95;;
2458;SDS011;1241;50.920;6.936;2022-12-10T13:09:46;50.05;;;28.55;;
2458;SDS011;1241;50.920;6.936;2022-12-10T13:18:01;45.08;;;27.25;;
2458;SDS011;1241;50.920;6.936;2022-12-10T13:20:41;38.22;;;23.65;;
2458;SDS011;1241;50.920;6.936;2022-12-10T13:36:26;44.05;;;25.23;;
2458;SDS011;1241;50.920;6.936;2022-12-10T13:39:20;41.00;;;23.30;;
2458;SDS011;1241;50.920;6.936;2022-12-10T13:44:49;47.45;;;26.60;;
2458;SDS011;1241;50.920;6.936;2022-12-10T13:50:45;42.05;;;25.35;;
2458;SDS011;1241;50.920;6.936;2022-12-10T13:58:51;43.80;;;26.20;;
2458;SDS011;1241;50.920;6.936;2022-12-10T14:06:39;33.17;;;23.33;;
2458;SDS011;1241;50.920;6.936;2022-12-10T14:09:17;47.13;;;25.63;;
2458;SDS011;1241;50.920;6.936;2022-12-10T14:11:48;40.45;;;25.50;;
2458;SDS011;1241;50.920;6.936;2022-12-10T14:14:23;38.35;;;24.48;;
2458;SDS011;1241;50.920;6.936;2022-12-10T14:16:56;46.17;;;24.80;;
2458;SDS011;1241;50.920;6.936;2022-12-10T14:19:26;50.60;;;27.92;;
2458;SDS011;1241;50.920;6.936;2022-12-10T14:21:53;42.97;;;23.88;;
2458;SDS011;1241;50.920;6.936;2022-12-10T14:24:28;38.75;;;25.55;;
2458;SDS011;1241;50.920;6.936;2022-12-10T14:27:05;46.00;;;26.92;;
2458;SDS011;1241;50.920;6.936;2022-12-10T14:29:48;42.83;;;25.65;;
2458;SDS011;1241;50.920;6.936;2022-12-10T14:32:17;38.03;;;24.15;;
2458;SDS011;1241;50.920;6.936;2022-12-10T14:34:52;51.15;;;25.85;;
2458;SDS011;1241;50.920;6.936;2022-12-10T14:37:20;40.92;;;26.95;;
2458;SDS011;1241;50.920;6.936;2022-12-10T14:39:53;43.63;;;27.85;;
2458;SDS011;1241;50.920;6.936;2022-12-10T14:42:19;46.28;;;27.25;;
2458;SDS011;1241;50.920;6.936;2022-12-10T14:44:46;44.10;;;25.38;;
2458;SDS011;1241;50.920;6.936;2022-12-10T14:47:20;39.80;;;25.60;;
2458;SDS011;1241;50.920;6.936;2022-12-10T14:49:46;46.95;;;27.27;;
2458;SDS011;1241;50.920;6.936;2022-12-10T14:52:19;51.35;;;28.23;;
2458;SDS011;1241;50.920;6.936;2022-12-10T14:54:46;49.05;;;24.80;;
2458;SDS011;1241;50.920;6.936;2022-12-10T14:57:26;42.33;;;27.10;;
2458;SDS011;1241;50.920;6.936;2022-12-10T15:00:03;43.28;;;27.60;;
2458;SDS011;1241;50.920;6.936;2022-12-10T15:02:50;51.63;;;29.98;;
2458;SDS011;1241;50.920;6.936;2022-12-10T15:05:20;49.97;;;28.23;;
2458;SDS011;1241;50.920;6.936;2022-12-10T15:07:53;51.10;;;28.65;;
2458;SDS011;1241;50.920;6.936;2022-12-10T15:10:27;46.47;;;27.70;;
2458;SDS011;1241;50.920;6.936;2022-12-10T15:12:54;51.83;;;27.70;;
2458;SDS011;1241;50.920;6.936;2022-12-10T15:15:31;55.95;;;32.13;;
2458;SDS011;1241;50.920;6.936;2022-12-10T15:20:37;50.47;;;30.77;;
2458;SDS011;1241;50.920;6.936;2022-12-10T15:23:08;54.55;;;30.40;;
2458;SDS011;1241;50.920;6.936;2022-12-10T15:28:30;54.80;;;30.10;;
2458;SDS011;1241;50.920;6.936;2022-12-10T15:33:50;52.97;;;32.13;;
2458;SDS011;1241;50.920;6.936;2022-12-10T15:41:41;55.55;;;29.13;;
2458;SDS011;1241;50.920;6.936;2022-12-10T15:49:23;59.00;;;33.10;;
2458;SDS011;1241;50.920;6.936;2022-12-10T15:51:50;58.40;;;32.40;;
2458;SDS011;1241;50.920;6.936;2022-12-10T15:54:23;56.35;;;31.00;;
2458;SDS011;1241;50.920;6.936;2022-12-10T15:56:58;54.47;;;31.60;;
2458;SDS011;1241;50.920;6.936;2022-12-10T15:59:25;54.70;;;31.58;;
2458;SDS011;1241;50.920;6.936;2022-12-10T16:01:50;59.85;;;32.75;;
2458;SDS011;1241;50.920;6.936;2022-12-10T16:04:16;57.83;;;32.90;;
2458;SDS011;1241;50.920;6.936;2022-12-10T16:06:42;58.27;;;28.50;;
2458;SDS011;1241;50.920;6.936;2022-12-10T16:09:08;52.53;;;29.57;;
2458;SDS011;1241;50.920;6.936;2022-12-10T16:11:34;48.17;;;27.55;;
2458;SDS011;1241;50.920;6.936;2022-12-10T16:14:00;44.60;;;27.90;;
2458;SDS011;1241;50.920;6.936;2022-12-10T16:16:28;50.95;;;30.65;;
2458;SDS011;1241;50.920;6.936;2022-12-10T16:18:54;50.80;;;29.45;;
2458;SDS011;1241;50.920;6.936;2022-12-10T16:21:20;54.33;;;29.23;;
2458;SDS011;1241;50.920;6.936;2022-12-10T16:23:46;54.97;;;31.00;;
2458;SDS011;1241;50.920;6.936;2022-12-10T16:26:15;47.15;;;28.58;;
2458;SDS011;1241;50.920;6.936;2022-12-10T16:28:42;49.35;;;29.83;;
2458;SDS011;1241;50.920;6.936;2022-12-10T16:31:09;54.37;;;30.53;;
2458;SDS011;1241;50.920;6.936;2022-12-10T16:33:37;52.40;;;29.58;;
2458;SDS011;1241;50.920;6.936;2022-12-10T16:36:03;50.63;;;29.17;;
2458;SDS011;1241;50.920;6.936;2022-12-10T16:38:29;49.10;;;28.97;;
2458;SDS011;1241;50.920;6.936;2022-12-10T16:40:54;43.20;;;27.60;;
2458;SDS011;1241;50.920;6.936;2022-12-10T16:43:21;43.63;;;28.47;;
2458;SDS011;1241;50.920;6.936;2022-12-10T16:45:48;53.78;;;30.60;;
2458;SDS011;1241;50.920;6.936;2022-12-10T16:48:14;43.60;;;28.63;;
2458;SDS011;1241;50.920;6.936;2022-12-10T16:50:40;46.50;;;26.43;;
2458;SDS011;1241;50.920;6.936;2022-12-10T16:53:23;47.72;;;27.77;;
2458;SDS011;1241;50.920;6.936;2022-12-10T16:55:51;46.15;;;27.92;;
2458;SDS011;1241;50.920;6.936;2022-12-10T16:58:17;49.70;;;28.05;;
2458;SDS011;1241;50.920;6.936;2022-12-10T17:00:43;50.20;;;27.63;;
2458;SDS011;1241;50.920;6.936;2022-12-10T17:03:12;51.03;;;29.23;;
2458;SDS011;1241;50.920;6.936;2022-12-10T17:05:47;43.60;;;26.70;;
2458;SDS011;1241;50.920;6.936;2022-12-10T17:08:18;47.40;;;27.95;;
2458;SDS011;1241;50.920;6.936;2022-12-10T17:10:44;46.20;;;27.85;;
2458;SDS011;1241;50.920;6.936;2022-12-10T17:13:30;46.10;;;27.45;;
2458;SDS011;1241;50.920;6.936;2022-12-10T17:15:57;43.90;;;26.33;;
2458;SDS011;1241;50.920;6.936;2022-12-10T17:18:23;49.73;;;27.50;;
2458;SDS011;1241;50.920;6.936;2022-12-10T17:20:49;50.57;;;28.50;;
2458;SDS011;1241;50.920;6.936;2022-12-10T17:23:15;50.73;;;27.43;;
2458;SDS011;1241;50.920;6.936;2022-12-10T17:25:41;48.15;;;28.50;;